Archival Weather

Norman Y Mineta San Jose Intl

San Jose, California (KSJC)

Report from: Tuesday, February 27, 2024 10:53 AM PST
Current time: Friday, June 14, 2024 4:46 AM PDT

Current weather – Weather history – Daily summaries
Weather forecast

Temperature15.6°C (60.1°F)
Dew point-0.6°C (30.9°F)
Winds 10 kts (5.1 m/s, 11.5 mph) North-Northwest (330°)
Visibility10 mi. (16.1 km)
Clouds Few clouds 2,600 ft. (792 m)
Ceiling: Broken clouds 9,000 ft. (2,743 m)
Altimeter30.10 in.Hg (1019 mB)
Relative humidity33 %
Density altitude-41 ft. (-12 m)
Sea-level pressure101.9 kPa (1019 mB, 30.10 in.Hg)
Remarks Corrected report
System requires maintenance
Automated weather observing station with precipitation discriminator
Flight conditions Visual Meteorological Conditions
Raw dataKSJC 271853Z COR 33010KT 10SM FEW026 BKN090 16/M01 A3010 RMK AO2 SLP193 T01561006 $
An error has occurred. This application may no longer respond until reloaded. Reload 🗙